Time;durP1;ratioP1;P1;durP2;ratioP2;P2;SDS_P1;SDS_P2;PMS_P1;PMS_P2;Temp;Humidity;BMP_temperature;BMP_pressure;BME280_temperature;BME280_humidity;BME280_pressure;Samples;Min_cycle;Max_cycle;Signal;HPM_P1;HPM_P2
2021/11/23 00:01:21;;;;;;;7.33;6.63;;;2.10;1.00;3.20;101773.00;;;;5004732;28;20439;-74
2021/11/23 00:03:50;;;;;;;7.13;5.90;;;2.10;1.00;3.20;101750.00;;;;4991162;28;20478;-74
2021/11/23 00:06:21;;;;;;;8.20;5.70;;;2.00;1.00;3.30;101755.00;;;;4990437;28;20454;-76
2021/11/23 00:08:49;;;;;;;7.40;6.70;;;2.10;1.00;3.30;101775.00;;;;4991849;28;20443;-75
2021/11/23 00:11:17;;;;;;;11.80;7.23;;;2.10;1.00;3.30;101771.00;;;;4991075;28;20451;-73
2021/11/23 00:13:46;;;;;;;7.20;5.90;;;2.10;1.00;3.30;101767.00;;;;4985933;28;20458;-74
2021/11/23 00:16:18;;;;;;;6.00;5.40;;;2.10;1.00;3.30;101760.00;;;;4995221;28;20489;-76
2021/11/23 00:18:46;;;;;;;11.37;6.87;;;2.10;1.00;3.30;101768.00;;;;4997684;28;20461;-73
2021/11/23 00:21:15;;;;;;;6.77;5.83;;;2.10;1.00;3.30;101778.00;;;;4997078;28;20458;-74
2021/11/23 00:23:46;;;;;;;8.30;5.83;;;2.10;1.00;3.30;101794.00;;;;4984248;28;20485;-75
2021/11/23 00:26:14;;;;;;;7.70;7.00;;;2.10;1.00;3.30;101792.00;;;;4994008;28;20436;-78
2021/11/23 00:28:42;;;;;;;6.60;5.90;;;2.10;1.00;3.20;101783.00;;;;5011906;28;20452;-75
2021/11/23 00:31:11;;;;;;;7.20;6.00;;;2.10;1.00;3.20;101785.00;;;;4988575;28;20475;-75
2021/11/23 00:33:42;;;;;;;7.10;6.40;;;2.00;1.00;3.20;101773.00;;;;4982778;28;20476;-75
2021/11/23 00:36:11;;;;;;;9.90;7.60;;;2.00;1.00;3.20;101769.00;;;;4992269;28;20951;-75
2021/11/23 00:38:44;;;;;;;8.40;6.37;;;2.00;1.00;3.20;101773.00;;;;4986042;28;20468;-75
2021/11/23 00:41:17;;;;;;;8.27;6.70;;;2.00;1.00;3.20;101770.00;;;;4980490;28;20493;-75
2021/11/23 00:43:46;;;;;;;14.30;7.27;;;2.00;1.00;3.20;101774.00;;;;4987791;28;20482;-75
2021/11/23 00:46:15;;;;;;;6.13;5.50;;;1.90;1.00;3.10;101783.00;;;;4985560;28;20961;-74
2021/11/23 00:48:44;;;;;;;6.37;5.77;;;1.90;1.00;3.10;101776.00;;;;4981362;28;20538;-77
2021/11/23 00:51:12;;;;;;;7.80;6.73;;;1.90;1.00;3.10;101749.00;;;;4990569;28;20479;-75
2021/11/23 00:53:41;;;;;;;9.40;6.17;;;1.80;1.00;3.10;101755.00;;;;4974768;28;20467;-75
2021/11/23 00:56:09;;;;;;;7.27;6.53;;;1.80;1.00;3.10;101765.00;;;;4981695;28;20486;-75
2021/11/23 00:58:39;;;;;;;10.13;6.30;;;1.70;1.00;3.10;101751.00;;;;4991053;28;20451;-75
2021/11/23 01:01:07;;;;;;;7.53;6.50;;;1.70;1.00;3.10;101736.00;;;;4987393;28;20455;-75
2021/11/23 01:03:36;;;;;;;10.60;6.63;;;1.70;1.00;3.10;101763.00;;;;4982086;28;20534;-75
2021/11/23 01:06:04;;;;;;;6.50;5.63;;;1.70;1.00;3.10;101761.00;;;;4989215;28;20888;-75
2021/11/23 01:08:37;;;;;;;10.97;6.40;;;1.70;1.00;3.10;101752.00;;;;5000103;28;20960;-75
2021/11/23 01:11:06;;;;;;;8.00;6.43;;;1.70;1.00;3.10;101757.00;;;;4981591;28;20472;-77
2021/11/23 01:13:35;;;;;;;8.27;6.13;;;1.70;1.00;3.10;101760.00;;;;4984106;28;20470;-76
2021/11/23 01:16:06;;;;;;;6.20;5.60;;;1.70;1.00;3.10;101624.00;;;;4992246;28;20461;-73
2021/11/23 01:18:35;;;;;;;6.70;6.00;;;1.80;1.00;3.10;101771.00;;;;4990064;28;20842;-73
2021/11/23 01:21:05;;;;;;;9.70;6.80;;;1.80;1.00;3.00;101768.00;;;;4981462;28;20453;-73
2021/11/23 01:23:33;;;;;;;13.03;7.43;;;1.70;1.00;3.00;101767.00;;;;4994519;28;20497;-74
2021/11/23 01:26:03;;;;;;;11.87;7.00;;;1.60;1.00;3.00;101782.00;;;;4988274;28;20447;-74
2021/11/23 01:28:31;;;;;;;8.27;6.30;;;1.60;1.00;3.00;101756.00;;;;4977690;28;20456;-76
2021/11/23 01:31:00;;;;;;;7.70;7.00;;;1.50;1.00;2.90;101780.00;;;;4981517;28;20462;-75
2021/11/23 01:33:31;;;;;;;9.43;6.43;;;1.50;1.00;2.90;101777.00;;;;4987469;28;20466;-72
2021/11/23 01:35:59;;;;;;;8.40;7.00;;;1.50;1.00;2.90;101773.00;;;;4991906;28;20968;-72
2021/11/23 01:38:28;;;;;;;7.80;6.17;;;1.40;1.00;2.90;101767.00;;;;4993229;28;20427;-73
2021/11/23 01:40:56;;;;;;;7.50;6.60;;;1.40;1.00;2.90;101769.00;;;;4993490;28;20480;-73
2021/11/23 01:43:24;;;;;;;10.10;6.40;;;1.30;1.00;2.90;101762.00;;;;4988984;28;20483;-73
2021/11/23 01:45:53;;;;;;;8.00;6.50;;;1.40;1.00;2.80;101769.00;;;;4983583;28;20451;-73
2021/11/23 01:48:21;;;;;;;10.37;8.20;;;1.40;1.00;2.90;101778.00;;;;5000708;28;20466;-74
2021/11/23 01:50:52;;;;;;;9.30;8.20;;;1.40;1.00;2.80;101762.00;;;;4993598;28;20462;-77
2021/11/23 01:53:20;;;;;;;8.57;7.67;;;1.50;1.00;2.80;101780.00;;;;5001456;28;20459;-74
2021/11/23 01:55:49;;;;;;;10.00;8.83;;;1.40;1.00;2.80;101773.00;;;;4992235;28;20957;-75
2021/11/23 01:58:18;;;;;;;12.47;11.30;;;1.40;1.00;2.80;101787.00;;;;4997086;28;20443;-73
2021/11/23 02:00:47;;;;;;;12.80;11.47;;;1.40;1.00;2.60;101770.00;;;;4988914;28;20447;-76
2021/11/23 02:03:17;;;;;;;13.37;11.70;;;1.30;1.00;2.70;101790.00;;;;4981718;28;20934;-72
2021/11/23 02:05:47;;;;;;;12.63;10.80;;;1.20;1.00;2.80;101780.00;;;;4999058;28;20435;-74
2021/11/23 02:08:17;;;;;;;10.83;9.60;;;1.10;1.00;2.80;101778.00;;;;5000051;28;20546;-72
2021/11/23 02:10:45;;;;;;;10.20;9.20;;;1.00;1.00;2.70;101739.00;;;;5005338;28;20510;-75
2021/11/23 02:13:14;;;;;;;11.47;9.97;;;1.00;1.00;2.70;101783.00;;;;4977192;28;20486;-74
2021/11/23 02:15:42;;;;;;;8.70;7.90;;;1.00;1.00;2.70;101775.00;;;;4981014;28;20916;-75
2021/11/23 02:18:17;;;;;;;12.23;10.40;;;1.00;1.00;2.70;101776.00;;;;4986890;28;20455;-75
2021/11/23 02:20:47;;;;;;;12.07;10.80;;;0.90;1.00;2.60;101786.00;;;;4986510;28;20455;-73
2021/11/23 02:23:16;;;;;;;14.50;11.70;;;0.90;1.00;2.60;101779.00;;;;4976360;28;20479;-72
2021/11/23 02:25:46;;;;;;;13.40;11.50;;;0.90;1.00;2.60;101748.00;;;;4975860;28;20484;-73
2021/11/23 02:28:14;;;;;;;17.70;11.50;;;0.90;1.00;2.60;101790.00;;;;4975359;28;20531;-72
2021/11/23 02:30:46;;;;;;;16.10;10.70;;;0.80;1.00;2.60;101789.00;;;;4992203;28;20452;-73
2021/11/23 02:33:17;;;;;;;12.03;10.73;;;0.80;1.00;2.50;101788.00;;;;4978347;28;20474;-73
2021/11/23 02:35:48;;;;;;;19.07;12.30;;;0.70;1.00;2.40;101777.00;;;;4981208;28;20485;-72
2021/11/23 02:38:19;;;;;;;13.43;11.00;;;0.70;1.00;2.40;101766.00;;;;4995995;28;20437;-77
2021/11/23 02:40:49;;;;;;;12.27;10.30;;;0.70;1.00;2.30;101741.00;;;;5018231;28;20530;-73
2021/11/23 02:43:18;;;;;;;10.33;9.03;;;0.70;1.00;2.30;101778.00;;;;5019983;28;20517;-72
2021/11/23 02:45:46;;;;;;;10.77;9.20;;;0.70;1.00;2.30;101771.00;;;;4998378;28;20851;-72
2021/11/23 02:48:16;;;;;;;11.00;8.80;;;0.70;1.00;2.30;101775.00;;;;4980381;28;20446;-73
2021/11/23 02:50:48;;;;;;;11.30;9.17;;;0.60;1.00;2.30;101752.00;;;;4986162;28;20464;-73
2021/11/23 02:53:18;;;;;;;10.83;9.37;;;0.60;1.00;2.30;101776.00;;;;4990547;28;20478;-72
2021/11/23 02:55:46;;;;;;;11.10;8.67;;;0.50;1.00;2.30;101723.00;;;;4989204;28;20490;-73
2021/11/23 02:58:15;;;;;;;11.00;9.90;;;0.50;1.00;2.30;101729.00;;;;4986901;28;20451;-72
2021/11/23 03:00:44;;;;;;;11.90;10.70;;;0.50;1.00;2.30;101779.00;;;;4989303;28;20451;-72
2021/11/23 03:03:12;;;;;;;10.87;9.47;;;0.50;1.00;2.30;101771.00;;;;4999235;28;20479;-72
2021/11/23 03:05:41;;;;;;;10.60;9.40;;;0.50;1.00;2.20;101781.00;;;;4986796;28;20823;-72
2021/11/23 03:08:09;;;;;;;11.50;9.50;;;0.50;1.00;2.20;101777.00;;;;4993598;28;20478;-72
2021/11/23 03:10:39;;;;;;;11.80;10.60;;;0.60;1.00;2.10;101785.00;;;;4994929;28;20454;-73
2021/11/23 03:13:08;;;;;;;13.33;11.30;;;0.60;1.00;2.20;101774.00;;;;4987136;28;20479;-73
2021/11/23 03:15:36;;;;;;;14.57;11.23;;;0.60;1.00;2.10;101787.00;;;;4989027;28;20455;-72
2021/11/23 03:18:06;;;;;;;12.63;11.43;;;0.60;1.00;2.10;101764.00;;;;4986595;28;20459;-72
2021/11/23 03:20:36;;;;;;;11.90;10.63;;;0.60;1.00;2.20;101756.00;;;;4995827;28;20459;-72
2021/11/23 03:23:06;;;;;;;12.17;10.90;;;0.50;1.00;2.20;101773.00;;;;4993843;28;20473;-74
2021/11/23 03:25:35;;;;;;;16.13;11.07;;;0.50;1.00;2.30;101766.00;;;;5007003;28;20459;-74
2021/11/23 03:28:06;;;;;;;13.23;11.07;;;0.40;1.00;2.20;101774.00;;;;4997057;28;20549;-73
2021/11/23 03:30:37;;;;;;;13.03;11.63;;;0.40;1.00;2.10;101784.00;;;;4993074;28;20985;-72
2021/11/23 03:33:08;;;;;;;12.40;11.20;;;0.50;1.00;2.20;101778.00;;;;4996532;28;20991;-72
2021/11/23 03:35:39;;;;;;;12.87;11.50;;;0.40;1.00;2.20;101722.00;;;;4999763;28;20443;-74
2021/11/23 03:38:12;;;;;;;14.60;12.30;;;0.30;1.00;2.10;101786.00;;;;5011745;28;20958;-73
2021/11/23 03:40:43;;;;;;;11.90;10.60;;;0.30;1.00;2.20;101788.00;;;;5017184;28;20450;-76
2021/11/23 03:43:14;;;;;;;14.63;11.43;;;0.30;1.00;2.20;101734.00;;;;5017717;28;20486;-74
2021/11/23 03:45:43;;;;;;;13.43;11.40;;;0.30;1.00;2.10;101767.00;;;;5016173;28;20507;-72
2021/11/23 03:48:12;;;;;;;12.77;10.97;;;0.30;1.00;2.20;101751.00;;;;5015130;28;20458;-72
2021/11/23 03:50:40;;;;;;;12.40;11.10;;;0.30;1.00;2.10;101775.00;;;;5015512;28;20510;-72
2021/11/23 03:53:11;;;;;;;13.20;11.87;;;0.30;1.00;2.00;101742.00;;;;5015091;28;20710;-73
2021/11/23 03:55:40;;;;;;;12.23;11.00;;;0.30;1.00;1.90;101757.00;;;;5012906;28;20460;-74
2021/11/23 03:58:08;;;;;;;14.07;12.70;;;0.40;1.00;1.90;101757.00;;;;5005715;28;20562;-70
2021/11/23 04:00:38;;;;;;;13.00;10.60;;;0.40;1.00;2.00;101749.00;;;;4994557;28;21159;-72
2021/11/23 04:03:07;;;;;;;13.33;11.90;;;0.40;1.00;2.10;101764.00;;;;4994459;28;20920;-72
2021/11/23 04:05:35;;;;;;;12.80;11.60;;;0.30;1.00;2.00;101759.00;;;;4989449;28;20482;-72
2021/11/23 04:08:04;;;;;;;12.30;11.10;;;0.30;1.00;2.00;101765.00;;;;4993732;28;20469;-73
2021/11/23 04:10:32;;;;;;;14.53;12.13;;;0.40;1.00;2.00;101759.00;;;;4992796;28;20462;-73
2021/11/23 04:13:01;;;;;;;14.13;12.43;;;0.40;1.00;2.00;101775.00;;;;4981082;28;20493;-72
2021/11/23 04:15:29;;;;;;;12.37;11.17;;;0.40;1.00;2.00;101781.00;;;;4985270;28;20461;-72
2021/11/23 04:17:59;;;;;;;13.37;12.07;;;0.40;1.00;2.10;101777.00;;;;4988923;28;20465;-73
2021/11/23 04:20:27;;;;;;;13.47;12.10;;;0.30;1.00;2.00;101766.00;;;;4977160;28;20554;-73
2021/11/23 04:22:56;;;;;;;15.03;13.03;;;0.30;1.00;2.00;101776.00;;;;4990128;28;21114;-74
2021/11/23 04:25:24;;;;;;;14.33;12.93;;;0.30;1.00;2.00;101775.00;;;;4985391;28;20478;-77
2021/11/23 04:27:53;;;;;;;13.73;12.10;;;0.20;1.00;2.00;101766.00;;;;4988870;28;20470;-73
2021/11/23 04:30:21;;;;;;;14.30;12.33;;;0.20;1.00;2.00;101776.00;;;;4985530;28;20811;-73
2021/11/23 04:32:50;;;;;;;13.30;12.00;;;0.30;1.00;2.00;101781.00;;;;4985010;28;20991;-72
2021/11/23 04:35:21;;;;;;;14.73;12.53;;;0.30;1.00;2.10;101781.00;;;;4983540;28;20955;-74
2021/11/23 04:37:49;;;;;;;14.30;12.20;;;0.40;1.00;2.10;101775.00;;;;4986654;28;20487;-73
2021/11/23 04:40:19;;;;;;;14.83;12.40;;;0.40;1.00;2.10;101754.00;;;;4987462;28;20483;-73
2021/11/23 04:42:48;;;;;;;14.83;13.30;;;0.50;1.00;2.10;101777.00;;;;4985929;28;20483;-72
2021/11/23 04:45:17;;;;;;;14.80;12.83;;;0.50;1.00;2.00;101763.00;;;;4987055;28;20485;-73
2021/11/23 04:47:46;;;;;;;15.00;13.27;;;0.50;1.00;2.10;101765.00;;;;4981592;28;20462;-72
2021/11/23 04:50:15;;;;;;;20.13;14.47;;;0.50;1.00;2.10;101764.00;;;;4989747;28;20451;-74
2021/11/23 04:52:44;;;;;;;23.63;14.40;;;0.50;1.00;2.10;101763.00;;;;4988117;28;20852;-73
2021/11/23 04:55:13;;;;;;;14.73;13.23;;;0.40;1.00;2.00;101783.00;;;;4975938;28;20501;-74
2021/11/23 04:57:42;;;;;;;15.43;13.83;;;0.40;1.00;2.00;101778.00;;;;4987350;28;20454;-73
2021/11/23 05:00:14;;;;;;;16.50;14.20;;;0.30;1.00;2.00;101761.00;;;;4988970;28;20448;-73
2021/11/23 05:02:43;;;;;;;17.47;14.30;;;0.30;1.00;2.00;101788.00;;;;4987564;28;20558;-73
2021/11/23 05:05:13;;;;;;;19.50;14.93;;;0.20;1.00;1.90;101772.00;;;;4980864;28;20485;-73
2021/11/23 05:07:44;;;;;;;20.50;15.83;;;0.20;1.00;1.90;101763.00;;;;4987297;28;20450;-73
2021/11/23 05:10:15;;;;;;;17.80;14.13;;;0.20;1.00;1.90;101755.00;;;;4984101;28;20461;-72
2021/11/23 05:12:43;;;;;;;17.07;14.87;;;0.20;1.00;1.90;101759.00;;;;4979361;28;20482;-74
2021/11/23 05:15:12;;;;;;;19.23;14.20;;;0.20;1.00;2.00;101763.00;;;;4978231;28;20472;-74
2021/11/23 05:17:41;;;;;;;16.53;14.00;;;0.20;1.00;2.00;101736.00;;;;4977825;28;20984;-73
2021/11/23 05:20:11;;;;;;;15.00;13.60;;;0.20;1.00;2.00;101765.00;;;;4985759;28;20464;-74
2021/11/23 05:22:40;;;;;;;15.53;13.50;;;0.20;1.00;2.00;101764.00;;;;4988680;28;20926;-74
2021/11/23 05:25:11;;;;;;;14.60;12.80;;;0.20;1.00;2.00;101767.00;;;;4990052;28;20963;-72
2021/11/23 05:27:41;;;;;;;19.73;14.50;;;0.20;1.00;1.90;101755.00;;;;4989442;28;20467;-72
2021/11/23 05:30:11;;;;;;;16.50;14.80;;;0.30;1.00;1.90;101768.00;;;;4990593;28;20472;-72
2021/11/23 05:32:41;;;;;;;15.93;14.33;;;0.30;1.00;1.90;101764.00;;;;4989319;28;20483;-72
2021/11/23 05:35:11;;;;;;;17.30;15.53;;;0.20;1.00;1.90;101768.00;;;;4988203;28;20837;-73
2021/11/23 05:37:40;;;;;;;17.70;14.83;;;0.20;1.00;1.90;101767.00;;;;4991853;28;20454;-73
2021/11/23 05:40:11;;;;;;;17.50;15.60;;;0.20;1.00;2.00;101762.00;;;;4987902;28;20497;-74
2021/11/23 05:42:40;;;;;;;18.07;15.60;;;0.20;1.00;2.00;101776.00;;;;4982017;28;20482;-72
2021/11/23 05:45:11;;;;;;;16.67;13.97;;;0.20;1.00;1.90;101750.00;;;;4985618;28;20495;-74
2021/11/23 05:47:41;;;;;;;17.47;14.00;;;0.30;1.00;2.00;101777.00;;;;4988778;28;20458;-72
2021/11/23 05:50:11;;;;;;;24.87;15.77;;;0.30;1.00;2.00;101789.00;;;;4990088;28;20452;-73
2021/11/23 05:52:39;;;;;;;18.00;15.00;;;0.20;1.00;1.90;101787.00;;;;4987335;28;20491;-72
2021/11/23 05:55:10;;;;;;;23.37;16.70;;;0.10;1.00;1.90;101779.00;;;;4983330;28;20468;-72
2021/11/23 05:57:38;;;;;;;18.83;15.30;;;0.10;1.00;1.90;101753.00;;;;4989064;28;20466;-72
2021/11/23 06:00:09;;;;;;;17.13;15.33;;;0.10;1.00;1.90;101772.00;;;;4986990;28;20463;-74
2021/11/23 06:02:37;;;;;;;25.50;15.50;;;0.10;1.00;1.90;101773.00;;;;4985385;28;21233;-73
2021/11/23 06:05:07;;;;;;;25.27;15.63;;;0.10;1.00;1.90;101712.00;;;;4981319;28;20470;-73
2021/11/23 06:07:36;;;;;;;18.63;15.70;;;0.00;1.00;1.90;101769.00;;;;4988799;28;20534;-73
2021/11/23 06:10:05;;;;;;;17.30;15.50;;;0.00;1.00;1.90;101728.00;;;;4992307;28;20454;-72
2021/11/23 06:12:35;;;;;;;19.47;15.97;;;0.00;1.00;1.90;101754.00;;;;4986537;28;20554;-72
2021/11/23 06:15:07;;;;;;;20.77;16.20;;;0.00;1.00;1.90;101783.00;;;;4985932;28;20867;-73
2021/11/23 06:17:36;;;;;;;22.57;16.10;;;0.00;1.00;1.90;101773.00;;;;4987689;28;20467;-72
2021/11/23 06:20:07;;;;;;;19.40;16.43;;;0.00;1.00;1.90;101772.00;;;;5006250;28;20450;-75
2021/11/23 06:22:36;;;;;;;20.20;16.23;;;0.00;1.00;1.80;101774.00;;;;5013385;28;20491;-74
2021/11/23 06:25:08;;;;;;;27.13;15.80;;;0.00;1.00;1.80;101735.00;;;;5004078;28;20834;-73
2021/11/23 06:27:38;;;;;;;21.10;14.87;;;0.00;1.00;1.80;101777.00;;;;4987273;28;20465;-72
2021/11/23 06:30:08;;;;;;;24.07;15.60;;;0.00;1.00;1.80;101795.00;;;;5003316;28;20505;-74
2021/11/23 06:32:37;;;;;;;24.20;17.00;;;0.10;1.00;1.80;101793.00;;;;4986940;28;20908;-72
2021/11/23 06:35:06;;;;;;;29.70;17.20;;;0.10;1.00;1.80;101784.00;;;;4991222;28;20466;-74
2021/11/23 06:37:35;;;;;;;19.50;14.90;;;0.10;1.00;1.80;101684.00;;;;4992911;28;20462;-74
2021/11/23 06:40:04;;;;;;;24.43;15.50;;;0.10;1.00;1.80;101811.00;;;;4993684;28;20485;-73
2021/11/23 06:42:33;;;;;;;18.97;15.63;;;0.10;1.00;1.90;101809.00;;;;4994128;28;20521;-74
2021/11/23 06:45:05;;;;;;;17.00;15.20;;;0.10;1.00;1.90;101800.00;;;;4997261;28;20833;-73
2021/11/23 06:47:33;;;;;;;18.53;13.83;;;0.00;1.00;1.90;101809.00;;;;4994991;28;20507;-74
2021/11/23 06:50:01;;;;;;;20.67;15.30;;;0.10;1.00;1.90;101801.00;;;;4990310;28;20455;-74
2021/11/23 06:52:30;;;;;;;28.00;15.67;;;0.00;1.00;1.90;101827.00;;;;4991500;28;21050;-74
2021/11/23 06:54:58;;;;;;;17.60;15.10;;;0.10;1.00;1.70;101830.00;;;;4990537;28;20545;-73
2021/11/23 06:57:27;;;;;;;17.07;15.23;;;0.10;1.00;1.90;101824.00;;;;4991894;28;20553;-74
2021/11/23 06:59:55;;;;;;;16.70;14.90;;;0.10;1.00;1.90;101836.00;;;;4992406;28;20486;-75
2021/11/23 07:02:25;;;;;;;21.30;17.20;;;0.10;1.00;2.00;101830.00;;;;4988954;28;20466;-74
2021/11/23 07:04:53;;;;;;;21.50;15.20;;;0.10;1.00;2.00;101839.00;;;;4995612;28;20482;-74
2021/11/23 07:07:22;;;;;;;26.07;17.43;;;0.10;1.00;2.00;101862.00;;;;4995660;28;20838;-74
2021/11/23 07:09:50;;;;;;;26.63;17.87;;;0.10;1.00;2.00;101850.00;;;;4998074;28;20463;-74
2021/11/23 07:12:18;;;;;;;25.20;17.00;;;0.20;1.00;2.00;101836.00;;;;5004706;28;20450;-74
2021/11/23 07:14:47;;;;;;;22.03;16.90;;;0.30;1.00;2.10;101856.00;;;;5011614;28;20473;-73
2021/11/23 07:17:15;;;;;;;22.50;18.10;;;0.30;1.00;2.00;101839.00;;;;5018435;23;20490;-81
2021/11/23 07:19:46;;;;;;;24.97;17.40;;;0.20;1.00;1.90;101848.00;;;;4991224;28;20466;-82
2021/11/23 07:22:14;;;;;;;21.27;19.00;;;0.20;1.00;2.00;101843.00;;;;4983927;28;20481;-82
2021/11/23 07:24:43;;;;;;;21.60;17.90;;;0.20;1.00;1.90;101823.00;;;;4975439;28;20455;-82
2021/11/23 07:27:11;;;;;;;22.53;17.60;;;0.20;1.00;2.10;101847.00;;;;5004199;28;20497;-82
2021/11/23 07:29:40;;;;;;;26.17;18.30;;;0.20;1.00;2.10;101839.00;;;;4984504;28;20448;-82
2021/11/23 07:32:11;;;;;;;29.53;26.43;;;0.30;1.00;2.20;101839.00;;;;4977639;28;20516;-83
2021/11/23 07:34:40;;;;;;;19.53;17.50;;;0.40;1.00;2.30;101846.00;;;;4982985;28;20448;-83
2021/11/23 07:37:09;;;;;;;31.80;24.93;;;0.40;1.00;2.40;101864.00;;;;4986015;28;20471;-82
2021/11/23 07:39:38;;;;;;;19.70;17.70;;;0.70;1.00;2.40;101823.00;;;;4983671;28;20460;-83
2021/11/23 07:42:07;;;;;;;21.80;19.50;;;0.80;1.00;2.40;101869.00;;;;4981227;28;20466;-83
2021/11/23 07:44:37;;;;;;;24.30;20.20;;;0.70;1.00;2.40;101876.00;;;;4980195;28;20460;-84
2021/11/23 07:47:11;;;;;;;20.17;18.03;;;0.80;1.00;2.50;101875.00;;;;4968519;28;20483;-84
2021/11/23 07:49:39;;;;;;;21.50;18.87;;;0.80;1.00;2.50;101851.00;;;;4980515;28;20449;-82
2021/11/23 07:52:09;;;;;;;21.87;19.57;;;0.80;1.00;2.40;101889.00;;;;4982511;28;20455;-85
2021/11/23 07:54:38;;;;;;;26.27;19.93;;;0.90;1.00;2.70;101871.00;;;;4972826;28;20456;-84
2021/11/23 07:57:07;;;;;;;22.53;19.50;;;0.90;1.00;2.80;101860.00;;;;4986155;28;20566;-84
2021/11/23 07:59:36;;;;;;;21.97;19.70;;;0.90;1.00;2.90;101888.00;;;;4978720;28;20459;-83
2021/11/23 08:02:05;;;;;;;19.83;17.93;;;1.00;1.00;3.00;101887.00;;;;4979673;28;20483;-82
2021/11/23 08:04:34;;;;;;;26.40;18.90;;;1.20;1.00;3.10;101850.00;;;;4977718;28;20456;-83
2021/11/23 08:07:02;;;;;;;24.13;17.93;;;1.30;1.00;3.10;101862.00;;;;4987544;28;20507;-81
2021/11/23 08:09:32;;;;;;;21.07;18.87;;;1.40;1.00;3.20;101878.00;;;;4972628;28;20540;-82
2021/11/23 08:12:02;;;;;;;19.67;16.60;;;1.30;1.00;3.20;101880.00;;;;4992220;28;20451;-83
2021/11/23 08:14:31;;;;;;;20.80;16.53;;;1.40;1.00;3.30;101824.00;;;;4971243;28;20444;-83
2021/11/23 08:17:00;;;;;;;17.60;15.70;;;1.40;1.00;3.30;101891.00;;;;4990247;28;20479;-82
2021/11/23 08:19:29;;;;;;;19.80;16.90;;;1.50;1.00;3.30;101896.00;;;;4977924;28;20451;-82
2021/11/23 08:21:58;;;;;;;17.70;15.77;;;1.60;1.00;3.30;101885.00;;;;4964100;28;20451;-82
2021/11/23 08:24:26;;;;;;;17.73;15.53;;;1.70;1.00;3.30;101858.00;;;;4982341;28;20467;-82
2021/11/23 08:26:58;;;;;;;17.07;14.37;;;1.80;1.00;3.30;101900.00;;;;4977367;28;20493;-81
2021/11/23 08:29:27;;;;;;;22.43;16.50;;;1.90;1.00;3.30;101878.00;;;;4963503;28;20463;-85
2021/11/23 08:31:56;;;;;;;17.27;15.47;;;2.00;1.00;3.40;101825.00;;;;4959745;28;20467;-83
2021/11/23 08:34:24;;;;;;;20.50;15.53;;;2.00;1.00;3.50;101882.00;;;;4963328;28;20510;-82
2021/11/23 08:36:53;;;;;;;20.63;15.77;;;2.10;1.00;3.60;101870.00;;;;4986537;28;20487;-84
2021/11/23 08:39:22;;;;;;;18.10;14.50;;;2.20;1.00;3.70;101796.00;;;;4976317;28;20455;-84
2021/11/23 08:41:52;;;;;;;18.07;15.57;;;2.30;1.00;3.70;101889.00;;;;4979111;28;20445;-83
2021/11/23 08:44:22;;;;;;;17.40;14.07;;;2.40;1.00;3.90;101880.00;;;;4964793;28;20452;-82
2021/11/23 08:46:51;;;;;;;15.90;14.07;;;2.50;1.00;3.90;101895.00;;;;4981105;28;20480;-84
2021/11/23 08:49:19;;;;;;;14.60;13.10;;;2.60;1.00;4.10;101784.00;;;;4984808;28;20532;-83
2021/11/23 08:51:49;;;;;;;12.70;10.63;;;2.70;1.00;3.80;101901.00;;;;4972255;28;20455;-84
2021/11/23 08:54:18;;;;;;;15.60;11.50;;;2.80;1.00;4.10;101842.00;;;;4997326;28;20459;-82
2021/11/23 08:56:54;;;;;;;14.20;11.00;;;2.90;1.00;4.20;101821.00;;;;4992396;28;20480;-85
2021/11/23 08:59:24;;;;;;;12.43;11.13;;;3.00;1.00;4.30;101895.00;;;;4982398;28;21817;-84
2021/11/23 09:01:53;;;;;;;13.33;11.90;;;3.00;1.00;4.40;101849.00;;;;4973342;28;20580;-78
2021/11/23 09:04:22;;;;;;;16.07;11.53;;;3.00;1.00;4.40;101881.00;;;;4977731;28;20494;-81
2021/11/23 09:06:54;;;;;;;16.03;10.93;;;3.00;1.00;4.50;101839.00;;;;4976178;28;20580;-84
2021/11/23 09:09:26;;;;;;;12.80;11.50;;;3.10;1.00;4.60;101851.00;;;;4972771;28;20463;-84
2021/11/23 09:11:56;;;;;;;12.47;11.23;;;3.30;1.00;4.70;101880.00;;;;4987847;28;20975;-84
2021/11/23 09:14:26;;;;;;;16.10;12.37;;;3.30;1.00;4.90;101862.00;;;;4988989;28;20471;-83
2021/11/23 09:16:56;;;;;;;12.93;11.73;;;3.40;1.00;5.00;101884.00;;;;4989314;28;20497;-81
2021/11/23 09:19:25;;;;;;;13.13;11.80;;;3.50;1.00;5.10;101889.00;;;;4984800;28;20460;-82
2021/11/23 09:21:54;;;;;;;13.10;11.80;;;3.50;1.00;5.10;101881.00;;;;4972243;28;20486;-83
2021/11/23 09:24:23;;;;;;;15.03;12.60;;;3.60;1.00;5.20;101885.00;;;;4993676;28;20463;-84
2021/11/23 09:26:52;;;;;;;13.10;11.60;;;3.70;1.00;5.30;101853.00;;;;4973911;28;20504;-85
2021/11/23 09:29:22;;;;;;;13.87;11.90;;;3.80;1.00;5.30;101893.00;;;;4982009;28;20524;-84
2021/11/23 09:31:53;;;;;;;13.33;11.83;;;3.90;1.00;5.40;101798.00;;;;4965128;28;20456;-82
2021/11/23 09:34:23;;;;;;;13.63;11.37;;;4.00;1.00;5.50;101892.00;;;;4967223;28;20459;-80
2021/11/23 09:36:56;;;;;;;13.50;11.97;;;4.10;1.00;5.60;101884.00;;;;4966260;28;21018;-81
2021/11/23 09:39:25;;;;;;;11.60;10.47;;;4.10;1.00;5.70;101871.00;;;;4979705;28;20439;-81
2021/11/23 09:41:53;;;;;;;13.37;11.53;;;4.10;1.00;5.70;101886.00;;;;4977564;28;21040;-80
2021/11/23 09:44:23;;;;;;;12.80;11.27;;;4.10;1.00;5.80;101891.00;;;;4979844;28;20452;-80
2021/11/23 09:46:53;;;;;;;13.07;10.40;;;4.10;1.00;5.80;101908.00;;;;4974900;28;20480;-79
2021/11/23 09:49:22;;;;;;;10.93;9.83;;;4.20;1.00;6.00;101899.00;;;;4959942;29;20579;-79
2021/11/23 09:51:51;;;;;;;10.47;9.40;;;4.30;1.00;6.00;101907.00;;;;4980759;28;20462;-80
2021/11/23 09:54:19;;;;;;;12.00;10.70;;;4.40;1.00;6.00;101892.00;;;;4984453;28;20519;-78
2021/11/23 09:56:48;;;;;;;11.50;10.47;;;4.50;1.00;6.10;101810.00;;;;4971896;28;20480;-79
2021/11/23 09:59:17;;;;;;;13.50;10.87;;;4.60;1.00;6.10;101870.00;;;;4981800;28;20458;-80
2021/11/23 10:01:54;;;;;;;12.33;9.53;;;4.90;1.00;6.30;101913.00;;;;4982048;28;20472;-80
2021/11/23 10:04:28;;;;;;;12.17;10.70;;;4.80;1.00;6.30;101887.00;;;;4964390;28;20566;-80
2021/11/23 10:07:00;;;;;;;10.80;9.60;;;4.80;1.00;6.40;101885.00;;;;4975934;28;20535;-80
2021/11/23 10:09:35;;;;;;;12.87;10.70;;;4.80;1.00;6.50;101883.00;;;;4970660;28;20464;-79
2021/11/23 10:12:21;;;;;;;12.60;10.07;;;4.90;1.00;6.40;101865.00;;;;4982734;28;20454;-80
2021/11/23 10:15:13;;;;;;;14.73;11.40;;;5.10;1.00;6.60;101876.00;;;;4984211;28;20455;-80
2021/11/23 10:17:45;;;;;;;13.20;11.90;;;5.10;1.00;6.50;101856.00;;;;4984553;28;20630;-80
2021/11/23 10:20:35;;;;;;;13.30;11.90;;;5.00;1.00;6.60;101871.00;;;;4967691;28;20452;-79
2021/11/23 10:23:15;;;;;;;13.83;12.50;;;5.10;1.00;6.60;101880.00;;;;4967847;28;20498;-79
2021/11/23 10:25:46;;;;;;;14.23;12.70;;;5.10;1.00;6.70;101883.00;;;;4975991;28;20443;-80
2021/11/23 10:28:16;;;;;;;14.10;12.70;;;5.20;1.00;6.70;101892.00;;;;4969975;28;20490;-78
2021/11/23 10:30:48;;;;;;;15.87;13.00;;;5.20;1.00;6.80;101865.00;;;;4975793;28;20523;-78
2021/11/23 10:33:19;;;;;;;12.53;11.23;;;5.30;1.00;6.80;101870.00;;;;4996127;28;20444;-81
2021/11/23 10:35:55;;;;;;;14.00;11.77;;;5.40;1.00;6.90;101882.00;;;;4996141;28;20448;-80
2021/11/23 10:38:24;;;;;;;13.17;11.43;;;5.40;1.00;6.90;101836.00;;;;4983301;28;20451;-79
2021/11/23 10:40:53;;;;;;;12.87;11.47;;;5.50;1.00;7.00;101847.00;;;;4987495;28;20459;-80
2021/11/23 10:43:24;;;;;;;11.57;10.43;;;5.60;1.00;6.90;101875.00;;;;4987063;28;20511;-78
2021/11/23 10:45:57;;;;;;;11.83;10.70;;;5.50;1.00;7.10;101858.00;;;;4969150;28;20531;-78
2021/11/23 10:48:28;;;;;;;19.13;12.23;;;5.70;1.00;7.20;101792.00;;;;4968159;28;21199;-81
2021/11/23 10:51:02;;;;;;;12.47;10.97;;;6.00;1.00;7.50;101853.00;;;;4983074;28;20448;-80
2021/11/23 10:53:31;;;;;;;14.63;10.37;;;6.10;1.00;7.50;101842.00;;;;4954613;29;20468;-80
2021/11/23 10:56:11;;;;;;;13.13;11.50;;;6.20;1.00;7.60;101846.00;;;;4995734;28;20546;-78
2021/11/23 10:58:41;;;;;;;12.70;9.80;;;6.30;1.00;7.60;101792.00;;;;4993670;28;20498;-79
2021/11/23 11:01:11;;;;;;;11.93;10.73;;;6.20;1.00;7.50;101812.00;;;;4991139;28;20444;-78
2021/11/23 11:03:43;;;;;;;12.57;11.30;;;6.10;1.00;7.60;101830.00;;;;4996886;28;20459;-84
2021/11/23 11:06:13;;;;;;;11.40;9.93;;;6.20;1.00;7.50;101818.00;;;;4984570;28;20464;-82
2021/11/23 11:08:46;;;;;;;13.30;10.23;;;6.20;1.00;7.60;101818.00;;;;5000188;28;20511;-79